createdAt,value
2019-03-29T00:01:37.206Z,2.23
2019-03-29T00:04:03.953Z,2.50
2019-03-29T00:06:30.702Z,2.10
2019-03-29T00:08:57.503Z,2.20
2019-03-29T00:11:24.241Z,2.57
2019-03-29T00:13:50.993Z,2.50
2019-03-29T00:16:17.749Z,2.40
2019-03-29T00:18:44.483Z,2.60
2019-03-29T00:21:11.301Z,2.20
2019-03-29T00:23:38.033Z,2.40
2019-03-29T00:26:04.779Z,2.27
2019-03-29T00:28:31.569Z,2.20
2019-03-29T00:30:58.293Z,2.30
2019-03-29T00:33:25.006Z,2.20
2019-03-29T00:35:51.996Z,2.10
2019-03-29T00:38:18.744Z,2.30
2019-03-29T00:40:45.463Z,2.30
2019-03-29T00:43:12.239Z,2.10
2019-03-29T00:45:38.973Z,2.33
2019-03-29T00:48:05.780Z,2.40
2019-03-29T00:50:33.050Z,2.30
2019-03-29T00:52:59.853Z,2.60
2019-03-29T00:55:26.618Z,2.10
2019-03-29T00:57:53.333Z,2.00
2019-03-29T01:00:20.262Z,2.10
2019-03-29T01:02:47.192Z,2.13
2019-03-29T01:05:14.044Z,2.20
2019-03-29T01:07:40.778Z,2.10
2019-03-29T01:10:08.599Z,2.03
2019-03-29T01:12:35.342Z,2.10
2019-03-29T01:15:04.752Z,2.17
2019-03-29T01:17:31.518Z,2.30
2019-03-29T01:19:58.230Z,2.40
2019-03-29T01:22:24.962Z,2.00
2019-03-29T01:24:51.784Z,2.63
2019-03-29T01:27:19.197Z,2.43
2019-03-29T01:29:46.229Z,2.10
2019-03-29T01:32:12.954Z,2.27
2019-03-29T01:34:39.698Z,2.17
2019-03-29T01:37:06.483Z,2.40
2019-03-29T01:39:33.220Z,2.30
2019-03-29T01:42:00.019Z,2.20
2019-03-29T01:44:27.929Z,2.00
2019-03-29T01:46:54.814Z,2.00
2019-03-29T01:49:21.615Z,2.40
2019-03-29T01:51:48.343Z,2.40
2019-03-29T01:54:15.087Z,2.50
2019-03-29T01:56:41.920Z,2.20
2019-03-29T01:59:08.653Z,2.50
2019-03-29T02:01:35.391Z,2.00
2019-03-29T02:04:05.516Z,2.00
2019-03-29T02:06:30.765Z,2.40
2019-03-29T02:08:57.510Z,2.37
2019-03-29T02:11:24.323Z,2.80
2019-03-29T02:13:51.261Z,2.23
2019-03-29T02:16:18.692Z,2.20
2019-03-29T02:18:45.495Z,2.40
2019-03-29T02:21:12.523Z,2.50
2019-03-29T02:23:39.275Z,2.70
2019-03-29T02:26:06.084Z,2.30
2019-03-29T02:28:32.805Z,2.30
2019-03-29T02:30:59.776Z,2.30
2019-03-29T02:33:26.940Z,2.40
2019-03-29T02:35:53.780Z,2.27
2019-03-29T02:38:20.566Z,2.70
2019-03-29T02:40:47.299Z,2.43
2019-03-29T02:43:14.349Z,2.30
2019-03-29T02:45:41.143Z,2.60
2019-03-29T02:48:08.380Z,3.00
2019-03-29T02:50:36.661Z,2.93
2019-03-29T02:53:03.638Z,2.70
2019-03-29T02:55:30.357Z,2.40
2019-03-29T02:57:57.111Z,3.23
2019-03-29T03:00:23.877Z,2.83
2019-03-29T03:02:50.621Z,3.33
2019-03-29T03:05:17.510Z,2.87
2019-03-29T03:07:44.652Z,3.30
2019-03-29T03:10:12.568Z,2.80
2019-03-29T03:12:39.343Z,2.80
2019-03-29T03:15:08.478Z,2.37
2019-03-29T03:17:35.918Z,2.50
2019-03-29T03:20:07.853Z,2.30
2019-03-29T03:22:34.600Z,2.43
2019-03-29T03:25:01.396Z,2.60
2019-03-29T03:27:28.140Z,3.23
2019-03-29T03:29:57.867Z,3.40
2019-03-29T03:32:24.652Z,2.80
2019-03-29T03:34:51.509Z,3.00
2019-03-29T03:37:18.372Z,3.03
2019-03-29T03:39:45.118Z,2.70
2019-03-29T03:42:12.734Z,2.87
2019-03-29T03:44:39.522Z,2.70
2019-03-29T03:47:06.260Z,2.60
2019-03-29T03:49:33.002Z,2.80
2019-03-29T03:51:59.992Z,2.40
2019-03-29T03:54:26.828Z,2.57
2019-03-29T03:56:54.168Z,3.00
2019-03-29T03:59:23.886Z,3.10
2019-03-29T04:01:50.620Z,2.40
2019-03-29T04:04:17.408Z,2.80
2019-03-29T04:06:44.165Z,2.80
2019-03-29T04:09:10.908Z,2.97
2019-03-29T04:11:37.783Z,2.77
2019-03-29T04:14:04.594Z,2.53
2019-03-29T04:16:31.361Z,2.80
2019-03-29T04:18:58.251Z,2.93
2019-03-29T04:21:25.002Z,3.27
2019-03-29T04:23:51.769Z,6.00
2019-03-29T04:26:18.658Z,2.77
2019-03-29T04:28:56.999Z,3.40
2019-03-29T04:31:14.025Z,4.03
2019-03-29T04:33:40.813Z,4.00
2019-03-29T04:36:07.553Z,5.20
2019-03-29T04:38:34.279Z,4.73
2019-03-29T04:41:02.153Z,4.57
2019-03-29T04:43:28.877Z,3.30
2019-03-29T04:45:56.908Z,4.17
2019-03-29T04:48:23.646Z,3.77
2019-03-29T04:50:50.381Z,4.33
2019-03-29T04:53:19.734Z,4.03
2019-03-29T04:55:46.406Z,3.73
2019-03-29T04:58:13.243Z,5.00
2019-03-29T05:00:40.033Z,6.53
2019-03-29T05:03:06.768Z,7.37
2019-03-29T05:05:33.559Z,6.10
2019-03-29T05:08:00.358Z,3.60
2019-03-29T05:10:27.100Z,3.50
2019-03-29T05:12:53.830Z,4.03
2019-03-29T05:15:20.595Z,5.67
2019-03-29T05:17:47.341Z,5.63
2019-03-29T05:20:14.077Z,5.20
2019-03-29T05:22:40.869Z,5.17
2019-03-29T05:25:27.366Z,5.57
2019-03-29T05:27:54.186Z,8.43
2019-03-29T05:30:20.903Z,7.50
2019-03-29T05:32:47.647Z,5.40
2019-03-29T05:35:14.440Z,5.43
2019-03-29T05:37:41.178Z,6.30
2019-03-29T05:40:08.736Z,8.67
2019-03-29T05:42:35.477Z,9.60
2019-03-29T05:45:05.432Z,8.60
2019-03-29T05:47:32.215Z,7.43
2019-03-29T05:49:58.959Z,10.87
2019-03-29T05:52:25.739Z,10.20
2019-03-29T05:54:52.471Z,9.53
2019-03-29T05:57:19.201Z,8.47
2019-03-29T05:59:46.096Z,10.17
2019-03-29T06:02:12.832Z,9.53
2019-03-29T06:04:39.575Z,8.13
2019-03-29T06:07:06.382Z,6.70
2019-03-29T06:09:34.968Z,8.00
2019-03-29T06:12:01.711Z,9.13
2019-03-29T06:14:28.469Z,8.77
2019-03-29T06:16:55.240Z,8.70
2019-03-29T06:19:22.010Z,8.20
2019-03-29T06:21:48.737Z,8.43
2019-03-29T06:24:15.488Z,10.63
2019-03-29T06:26:42.265Z,9.90
2019-03-29T06:29:09.013Z,9.50
2019-03-29T06:31:35.820Z,10.60
2019-03-29T06:34:02.584Z,18.03
2019-03-29T06:36:30.724Z,15.27
2019-03-29T06:38:59.320Z,13.10
2019-03-29T06:41:26.069Z,9.60
2019-03-29T06:43:52.786Z,11.73
2019-03-29T06:46:19.615Z,8.47
2019-03-29T06:48:46.361Z,7.13
2019-03-29T06:51:13.116Z,7.57
2019-03-29T06:53:39.934Z,6.10
2019-03-29T06:56:06.733Z,5.13
2019-03-29T06:58:33.424Z,7.17
2019-03-29T07:01:00.298Z,5.90
2019-03-29T07:03:27.042Z,6.93
2019-03-29T07:05:53.882Z,7.17
2019-03-29T07:08:20.696Z,5.07
2019-03-29T07:10:47.478Z,5.80
2019-03-29T07:13:14.278Z,4.50
2019-03-29T07:15:41.021Z,5.10
2019-03-29T07:18:07.752Z,5.27
2019-03-29T07:20:34.550Z,4.50
2019-03-29T07:23:01.301Z,5.83
2019-03-29T07:25:28.092Z,10.43
2019-03-29T07:27:54.839Z,10.23
2019-03-29T07:30:21.572Z,5.13
2019-03-29T07:32:48.373Z,4.07
2019-03-29T07:35:15.105Z,3.60
2019-03-29T07:37:41.918Z,3.20
2019-03-29T07:40:09.149Z,3.73
2019-03-29T07:42:35.907Z,3.70
2019-03-29T07:45:05.445Z,3.77
2019-03-29T07:47:32.199Z,3.57
2019-03-29T07:49:58.947Z,3.40
2019-03-29T07:52:25.734Z,3.67
2019-03-29T07:54:52.486Z,3.00
2019-03-29T07:57:19.278Z,3.20
2019-03-29T07:59:46.030Z,3.30
2019-03-29T08:02:12.764Z,3.00
2019-03-29T08:04:39.586Z,2.97
2019-03-29T08:07:06.643Z,3.03
2019-03-29T08:09:33.529Z,3.30
2019-03-29T08:12:00.315Z,3.03
2019-03-29T08:14:27.062Z,2.93
2019-03-29T08:16:53.888Z,3.30
2019-03-29T08:19:20.626Z,3.07
2019-03-29T08:21:47.367Z,2.90
2019-03-29T08:24:14.161Z,2.90
2019-03-29T08:26:41.025Z,2.43
2019-03-29T08:29:07.824Z,2.77
2019-03-29T08:31:34.576Z,2.23
2019-03-29T08:34:01.511Z,2.40
2019-03-29T08:36:28.322Z,2.10
2019-03-29T08:38:55.116Z,2.27
2019-03-29T08:41:21.925Z,2.43
2019-03-29T08:43:48.686Z,2.20
2019-03-29T08:46:15.420Z,2.20
2019-03-29T08:48:42.260Z,2.70
2019-03-29T08:51:09.021Z,1.90
2019-03-29T08:53:35.787Z,2.03
2019-03-29T08:56:02.648Z,2.13
2019-03-29T08:58:29.401Z,1.80
2019-03-29T09:00:56.129Z,2.23
2019-03-29T09:03:23.937Z,2.13
2019-03-29T09:05:50.872Z,2.03
2019-03-29T09:08:17.627Z,1.87
2019-03-29T09:10:44.452Z,1.70
2019-03-29T09:13:11.199Z,1.80
2019-03-29T09:15:38.017Z,7.90
2019-03-29T09:18:04.772Z,2.13
2019-03-29T09:20:34.294Z,1.87
2019-03-29T09:23:00.136Z,2.97
2019-03-29T09:25:26.893Z,1.87
2019-03-29T09:27:53.706Z,3.97
2019-03-29T09:30:20.544Z,2.10
2019-03-29T09:32:50.905Z,1.60
2019-03-29T09:35:15.897Z,1.57
2019-03-29T09:37:42.640Z,1.60
2019-03-29T09:40:09.583Z,1.80
2019-03-29T09:42:36.491Z,1.43
2019-03-29T09:45:06.246Z,1.40
2019-03-29T09:47:38.564Z,1.33
2019-03-29T09:50:03.272Z,1.40
2019-03-29T09:52:30.018Z,1.40
2019-03-29T09:54:56.823Z,1.63
2019-03-29T09:57:36.997Z,1.43
2019-03-29T09:59:52.155Z,1.60
2019-03-29T10:02:18.984Z,1.20
2019-03-29T10:04:45.714Z,1.80
2019-03-29T10:07:12.491Z,1.23
2019-03-29T10:09:39.362Z,1.57
2019-03-29T10:12:06.157Z,1.30
2019-03-29T10:14:33.824Z,1.60
2019-03-29T10:17:00.625Z,1.40
2019-03-29T10:19:27.377Z,1.30
2019-03-29T10:21:54.131Z,1.90
2019-03-29T10:24:20.926Z,1.70
2019-03-29T10:26:47.669Z,2.80
2019-03-29T10:29:14.480Z,1.90
2019-03-29T10:31:41.301Z,1.30
2019-03-29T10:34:08.042Z,1.10
2019-03-29T10:36:34.808Z,1.23
2019-03-29T10:39:01.673Z,1.47
2019-03-29T10:41:28.449Z,1.10
2019-03-29T10:43:55.248Z,1.17
2019-03-29T10:46:21.987Z,1.10
2019-03-29T10:48:48.725Z,2.00
2019-03-29T10:51:15.554Z,1.20
2019-03-29T10:53:42.313Z,1.53
2019-03-29T10:56:09.067Z,1.13
2019-03-29T10:58:35.867Z,1.20
2019-03-29T11:01:03.124Z,1.50
2019-03-29T11:03:29.929Z,1.30
2019-03-29T11:05:56.738Z,1.30
2019-03-29T11:08:23.494Z,1.30
2019-03-29T11:10:50.246Z,1.47
2019-03-29T11:13:17.091Z,1.13
2019-03-29T11:15:43.852Z,1.73
2019-03-29T11:18:11.245Z,1.30
2019-03-29T11:20:38.052Z,1.30
2019-03-29T11:23:04.826Z,1.20
2019-03-29T11:25:31.645Z,1.30
2019-03-29T11:27:58.368Z,1.50
2019-03-29T11:30:25.136Z,1.17
2019-03-29T11:32:51.941Z,1.17
2019-03-29T11:35:18.684Z,1.57
2019-03-29T11:37:45.448Z,1.47
2019-03-29T11:40:12.687Z,1.20
2019-03-29T11:42:39.444Z,1.37
2019-03-29T11:45:08.263Z,1.53
2019-03-29T11:47:35.081Z,1.20
2019-03-29T11:50:02.620Z,1.20
2019-03-29T11:52:29.379Z,1.30
2019-03-29T11:54:56.278Z,1.10
2019-03-29T11:57:23.049Z,1.13
2019-03-29T11:59:49.888Z,1.23
2019-03-29T12:02:30.184Z,1.80
2019-03-29T12:04:45.269Z,1.10
2019-03-29T12:07:12.304Z,1.20
2019-03-29T12:09:39.054Z,1.10
2019-03-29T12:12:05.802Z,1.30
2019-03-29T12:14:32.672Z,1.20
2019-03-29T12:17:00.123Z,1.43
2019-03-29T12:19:26.880Z,1.30
2019-03-29T12:21:53.673Z,1.33
2019-03-29T12:24:20.501Z,1.53
2019-03-29T12:26:47.324Z,1.50
2019-03-29T12:29:14.049Z,1.20
2019-03-29T12:31:40.806Z,1.00
2019-03-29T12:34:07.648Z,1.30
2019-03-29T12:36:34.517Z,1.30
2019-03-29T12:39:05.754Z,1.30
2019-03-29T12:41:32.548Z,1.37
2019-03-29T12:43:59.286Z,1.30
2019-03-29T12:46:26.034Z,1.40
2019-03-29T12:48:52.812Z,1.20
2019-03-29T12:51:19.578Z,1.10
2019-03-29T12:53:46.381Z,1.90
2019-03-29T12:56:13.128Z,1.20
2019-03-29T12:58:39.876Z,1.07
2019-03-29T13:01:06.701Z,1.40
2019-03-29T13:03:33.443Z,1.20
2019-03-29T13:06:00.230Z,1.47
2019-03-29T13:08:27.012Z,1.10
2019-03-29T13:10:54.090Z,1.50
2019-03-29T13:13:20.913Z,2.10
2019-03-29T13:15:47.712Z,1.17
2019-03-29T13:18:14.655Z,1.23
2019-03-29T13:20:41.457Z,1.00
2019-03-29T13:23:08.191Z,1.10
2019-03-29T13:25:35.003Z,2.47
2019-03-29T13:28:01.777Z,3.30
2019-03-29T13:30:28.537Z,1.33
2019-03-29T13:32:55.336Z,1.10
2019-03-29T13:35:22.107Z,1.20
2019-03-29T13:37:48.879Z,1.60
2019-03-29T13:40:15.770Z,1.00
2019-03-29T13:42:42.536Z,1.10
2019-03-29T13:45:09.328Z,1.10
2019-03-29T13:47:36.601Z,1.23
2019-03-29T13:50:07.515Z,1.23
2019-03-29T13:52:34.264Z,1.27
2019-03-29T13:55:01.054Z,2.77
2019-03-29T13:57:27.845Z,2.10
2019-03-29T13:59:54.782Z,1.17
2019-03-29T14:02:21.545Z,3.10
2019-03-29T14:04:48.297Z,1.60
2019-03-29T14:07:15.029Z,1.70
2019-03-29T14:09:41.889Z,2.10
2019-03-29T14:12:08.643Z,1.70
2019-03-29T14:14:38.468Z,1.40
2019-03-29T14:17:03.999Z,1.40
2019-03-29T14:19:30.772Z,1.40
2019-03-29T14:21:57.635Z,1.07
2019-03-29T14:24:24.411Z,1.07
2019-03-29T14:26:51.132Z,1.17
2019-03-29T14:29:17.945Z,3.10
2019-03-29T14:31:44.710Z,1.30
2019-03-29T14:34:11.433Z,1.17
2019-03-29T14:36:38.238Z,1.20
2019-03-29T14:39:05.890Z,1.50
2019-03-29T14:41:34.618Z,1.20
2019-03-29T14:44:01.423Z,1.07
2019-03-29T14:46:28.194Z,1.20
2019-03-29T14:48:55.104Z,1.20
2019-03-29T14:51:21.918Z,1.10
2019-03-29T14:53:48.663Z,2.70
2019-03-29T14:56:15.475Z,1.20
2019-03-29T14:58:42.220Z,1.10
2019-03-29T15:01:09.125Z,1.10
2019-03-29T15:03:35.898Z,1.00
2019-03-29T15:06:02.872Z,1.40
2019-03-29T15:08:29.970Z,1.00
2019-03-29T15:11:00.048Z,1.03
2019-03-29T15:13:26.799Z,1.00
2019-03-29T15:15:53.867Z,1.03
2019-03-29T15:18:21.025Z,1.10
2019-03-29T15:20:53.574Z,1.20
2019-03-29T15:23:16.592Z,0.83
2019-03-29T15:25:43.369Z,1.03
2019-03-29T15:28:10.153Z,1.60
2019-03-29T15:30:37.061Z,1.20
2019-03-29T15:33:03.842Z,1.00
2019-03-29T15:35:30.627Z,0.97
2019-03-29T15:37:57.485Z,1.03
2019-03-29T15:40:24.332Z,1.27
2019-03-29T15:42:51.081Z,1.60
2019-03-29T15:45:20.712Z,1.90
2019-03-29T15:47:46.683Z,1.40
2019-03-29T15:50:13.583Z,1.70
2019-03-29T15:52:40.446Z,1.33
2019-03-29T15:55:07.657Z,1.37
2019-03-29T15:57:34.546Z,2.30
2019-03-29T16:00:01.343Z,2.10
2019-03-29T16:02:28.079Z,1.33
2019-03-29T16:04:55.094Z,3.33
2019-03-29T16:07:21.986Z,2.50
2019-03-29T16:09:48.718Z,1.47
2019-03-29T16:12:15.528Z,1.37
2019-03-29T16:14:42.293Z,2.53
2019-03-29T16:17:09.210Z,2.03
2019-03-29T16:19:36.472Z,1.60
2019-03-29T16:22:05.908Z,1.40
2019-03-29T16:24:31.881Z,1.30
2019-03-29T16:26:58.704Z,1.40
2019-03-29T16:29:25.493Z,1.30
2019-03-29T16:31:53.633Z,1.93
2019-03-29T16:34:20.320Z,3.17
2019-03-29T16:36:47.178Z,3.20
2019-03-29T16:39:14.025Z,5.17
2019-03-29T16:41:40.803Z,4.70
2019-03-29T16:44:07.657Z,2.60
2019-03-29T16:46:37.609Z,2.10
2019-03-29T16:49:04.348Z,1.87
2019-03-29T16:51:31.667Z,1.40
2019-03-29T16:53:58.444Z,1.50
2019-03-29T16:56:25.293Z,2.20
2019-03-29T16:58:52.082Z,2.00
2019-03-29T17:01:18.861Z,1.60
2019-03-29T17:03:45.710Z,2.40
2019-03-29T17:06:12.512Z,7.83
2019-03-29T17:08:39.364Z,14.37
2019-03-29T17:11:06.201Z,18.27
2019-03-29T17:13:32.985Z,8.37
2019-03-29T17:16:02.158Z,4.80
2019-03-29T17:18:29.414Z,2.40
2019-03-29T17:20:56.695Z,2.43
2019-03-29T17:23:23.504Z,2.17
2019-03-29T17:25:50.248Z,2.20
2019-03-29T17:28:16.991Z,2.10
2019-03-29T17:30:43.771Z,3.70
2019-03-29T17:33:10.512Z,2.50
2019-03-29T17:35:37.370Z,2.83
2019-03-29T17:38:04.590Z,4.10
2019-03-29T17:40:31.383Z,3.00
2019-03-29T17:42:58.311Z,2.27
2019-03-29T17:45:25.101Z,3.00
2019-03-29T17:47:51.854Z,3.13
2019-03-29T17:50:18.667Z,2.50
2019-03-29T17:52:45.463Z,1.80
2019-03-29T17:55:12.396Z,1.30
2019-03-29T17:57:39.128Z,1.83
2019-03-29T18:00:07.577Z,3.07
2019-03-29T18:02:34.439Z,2.93
2019-03-29T18:05:01.181Z,3.30
2019-03-29T18:07:27.964Z,3.47
2019-03-29T18:09:54.806Z,2.90
2019-03-29T18:12:21.538Z,4.07
2019-03-29T18:14:48.327Z,4.10
2019-03-29T18:17:15.092Z,2.37
2019-03-29T18:19:41.924Z,3.87
2019-03-29T18:22:08.738Z,2.33
2019-03-29T18:24:35.497Z,2.57
2019-03-29T18:27:02.293Z,2.73
2019-03-29T18:29:29.096Z,2.87
2019-03-29T18:31:55.967Z,4.30
2019-03-29T18:34:23.996Z,4.67
2019-03-29T18:36:52.685Z,5.50
2019-03-29T18:39:20.865Z,5.83
2019-03-29T18:41:47.664Z,2.93
2019-03-29T18:44:14.414Z,3.20
2019-03-29T18:46:44.767Z,3.70
2019-03-29T18:49:09.798Z,3.90
2019-03-29T18:51:36.541Z,3.40
2019-03-29T18:54:03.626Z,3.60
2019-03-29T18:56:30.470Z,3.80
2019-03-29T18:58:57.200Z,2.77
2019-03-29T19:01:25.855Z,2.27
2019-03-29T19:03:52.843Z,3.00
2019-03-29T19:06:19.627Z,2.87
2019-03-29T19:08:49.985Z,2.93
2019-03-29T19:11:16.732Z,3.10
2019-03-29T19:13:43.542Z,2.90
2019-03-29T19:16:10.325Z,2.97
2019-03-29T19:18:37.049Z,6.03
2019-03-29T19:21:03.991Z,5.37
2019-03-29T19:23:30.731Z,3.57
2019-03-29T19:25:57.506Z,2.60
2019-03-29T19:28:24.294Z,2.50
2019-03-29T19:30:51.069Z,3.70
2019-03-29T19:33:17.796Z,4.57
2019-03-29T19:35:44.610Z,4.13
2019-03-29T19:38:11.378Z,3.43
2019-03-29T19:40:38.260Z,3.87
2019-03-29T19:43:05.117Z,4.20
2019-03-29T19:45:34.287Z,4.80
2019-03-29T19:48:00.428Z,3.27
2019-03-29T19:50:27.215Z,3.17
2019-03-29T19:52:53.939Z,3.00
2019-03-29T19:55:20.761Z,3.40
2019-03-29T19:57:47.516Z,3.50
2019-03-29T20:00:14.882Z,3.20
2019-03-29T20:02:45.513Z,3.00
2019-03-29T20:05:24.884Z,3.97
2019-03-29T20:07:52.915Z,7.37
2019-03-29T20:10:19.702Z,6.03
2019-03-29T20:12:46.588Z,5.00
2019-03-29T20:15:13.399Z,5.57
2019-03-29T20:17:40.189Z,4.40
2019-03-29T20:20:07.047Z,3.23
2019-03-29T20:22:33.888Z,3.43
2019-03-29T20:25:00.665Z,3.60
2019-03-29T20:27:27.480Z,2.93
2019-03-29T20:29:54.250Z,3.97
2019-03-29T20:32:21.000Z,4.20
2019-03-29T20:34:47.808Z,3.37
2019-03-29T20:37:14.572Z,4.63
2019-03-29T20:39:41.386Z,4.30
2019-03-29T20:42:08.155Z,3.30
2019-03-29T20:44:34.936Z,3.57
2019-03-29T20:47:01.778Z,7.50
2019-03-29T20:49:28.543Z,4.10
2019-03-29T20:51:55.270Z,3.67
2019-03-29T20:54:22.111Z,3.37
2019-03-29T20:56:48.896Z,3.50
2019-03-29T20:59:15.640Z,3.73
2019-03-29T21:01:42.414Z,3.93
2019-03-29T21:04:09.197Z,2.83
2019-03-29T21:06:36.021Z,2.73
2019-03-29T21:09:06.000Z,2.90
2019-03-29T21:11:32.721Z,2.90
2019-03-29T21:13:59.536Z,2.87
2019-03-29T21:16:26.307Z,3.23
2019-03-29T21:18:53.149Z,2.43
2019-03-29T21:21:19.929Z,2.47
2019-03-29T21:23:47.360Z,2.90
2019-03-29T21:26:14.272Z,2.30
2019-03-29T21:28:41.051Z,3.20
2019-03-29T21:31:07.828Z,3.50
2019-03-29T21:33:34.676Z,3.50
2019-03-29T21:36:01.417Z,3.20
2019-03-29T21:38:28.192Z,2.83
2019-03-29T21:40:54.999Z,2.60
2019-03-29T21:43:21.739Z,2.53
2019-03-29T21:45:48.590Z,2.40
2019-03-29T21:48:28.762Z,2.90
2019-03-29T21:50:43.932Z,3.03
2019-03-29T21:53:10.775Z,2.70
2019-03-29T21:55:37.549Z,2.50
2019-03-29T21:58:04.335Z,2.70
2019-03-29T22:00:31.152Z,2.60
2019-03-29T22:02:57.933Z,2.50
2019-03-29T22:05:24.717Z,3.00
2019-03-29T22:07:51.473Z,2.80
2019-03-29T22:10:18.234Z,2.73
2019-03-29T22:12:45.062Z,2.30
2019-03-29T22:15:13.323Z,2.00
2019-03-29T22:17:40.112Z,1.80
2019-03-29T22:20:08.229Z,1.90
2019-03-29T22:22:35.020Z,2.00
2019-03-29T22:25:03.102Z,2.30
2019-03-29T22:27:29.905Z,2.50
2019-03-29T22:29:56.686Z,2.10
2019-03-29T22:32:23.504Z,2.30
2019-03-29T22:34:50.279Z,1.97
2019-03-29T22:37:17.126Z,2.30
2019-03-29T22:39:43.936Z,2.30
2019-03-29T22:42:10.743Z,2.07
2019-03-29T22:44:37.592Z,1.90
2019-03-29T22:47:04.387Z,1.83
2019-03-29T22:49:31.186Z,2.30
2019-03-29T22:51:58.116Z,2.03
2019-03-29T22:54:24.920Z,2.33
2019-03-29T22:56:51.696Z,2.60
2019-03-29T22:59:18.542Z,2.43
2019-03-29T23:01:46.242Z,1.73
2019-03-29T23:04:13.096Z,1.97
2019-03-29T23:06:39.885Z,1.93
2019-03-29T23:09:07.089Z,2.07
2019-03-29T23:11:34.248Z,2.73
2019-03-29T23:14:01.046Z,3.87
2019-03-29T23:16:30.393Z,3.50
2019-03-29T23:19:06.507Z,2.83
2019-03-29T23:21:25.053Z,2.30
2019-03-29T23:23:52.693Z,2.00
2019-03-29T23:26:19.563Z,2.00
2019-03-29T23:28:46.376Z,1.80
2019-03-29T23:31:13.146Z,1.77
2019-03-29T23:33:40.022Z,1.70
2019-03-29T23:36:06.813Z,1.80
2019-03-29T23:38:33.607Z,1.70
2019-03-29T23:41:00.442Z,1.80
2019-03-29T23:43:27.232Z,1.80
2019-03-29T23:45:54.076Z,1.80
2019-03-29T23:48:20.861Z,1.67
2019-03-29T23:50:47.648Z,1.57
2019-03-29T23:53:14.484Z,1.67
2019-03-29T23:55:41.280Z,1.73
2019-03-29T23:58:08.082Z,1.80
